sensor_id;sensor_type;location;lat;lon;timestamp;temperature;humidity
75164;HTU21D;63746;45.402;37.922;2022-10-16T00:00:00;10.35;59.62
75164;HTU21D;63746;45.402;37.922;2022-10-16T00:02:26;10.34;59.68
75164;HTU21D;63746;45.402;37.922;2022-10-16T00:04:52;10.33;59.64
75164;HTU21D;63746;45.402;37.922;2022-10-16T00:07:20;10.29;59.67
75164;HTU21D;63746;45.402;37.922;2022-10-16T00:09:46;10.28;59.70
75164;HTU21D;63746;45.402;37.922;2022-10-16T00:12:12;10.26;59.70
75164;HTU21D;63746;45.402;37.922;2022-10-16T00:14:38;10.25;59.73
75164;HTU21D;63746;45.402;37.922;2022-10-16T00:17:06;10.23;59.73
75164;HTU21D;63746;45.402;37.922;2022-10-16T00:19:32;10.22;59.75
75164;HTU21D;63746;45.402;37.922;2022-10-16T00:21:58;10.22;59.76
75164;HTU21D;63746;45.402;37.922;2022-10-16T00:24:23;10.21;59.71
75164;HTU21D;63746;45.402;37.922;2022-10-16T00:26:50;10.19;59.77
75164;HTU21D;63746;45.402;37.922;2022-10-16T00:29:16;10.19;59.80
75164;HTU21D;63746;45.402;37.922;2022-10-16T00:31:42;10.19;59.79
75164;HTU21D;63746;45.402;37.922;2022-10-16T00:34:08;10.19;59.80
75164;HTU21D;63746;45.402;37.922;2022-10-16T00:36:34;10.18;59.80
75164;HTU21D;63746;45.402;37.922;2022-10-16T00:38:59;10.14;59.81
75164;HTU21D;63746;45.402;37.922;2022-10-16T00:41:27;10.14;59.86
75164;HTU21D;63746;45.402;37.922;2022-10-16T00:43:58;10.14;59.81
75164;HTU21D;63746;45.402;37.922;2022-10-16T00:46:41;10.15;59.77
75164;HTU21D;63746;45.402;37.922;2022-10-16T00:49:18;10.14;59.77
75164;HTU21D;63746;45.402;37.922;2022-10-16T00:51:47;10.14;59.84
75164;HTU21D;63746;45.402;37.922;2022-10-16T00:54:21;10.14;59.85
75164;HTU21D;63746;45.402;37.922;2022-10-16T00:56:49;10.13;59.83
75164;HTU21D;63746;45.402;37.922;2022-10-16T00:59:22;10.14;59.82
75164;HTU21D;63746;45.402;37.922;2022-10-16T01:01:50;10.14;59.83
75164;HTU21D;63746;45.402;37.922;2022-10-16T01:04:16;10.12;59.83
75164;HTU21D;63746;45.402;37.922;2022-10-16T01:12:06;10.13;59.74
75164;HTU21D;63746;45.402;37.922;2022-10-16T01:17:53;10.09;59.93
75164;HTU21D;63746;45.402;37.922;2022-10-16T01:20:31;10.10;59.93
75164;HTU21D;63746;45.402;37.922;2022-10-16T01:28:45;10.08;59.88
75164;HTU21D;63746;45.402;37.922;2022-10-16T01:31:15;10.09;59.90
75164;HTU21D;63746;45.402;37.922;2022-10-16T01:33:46;10.12;59.86
75164;HTU21D;63746;45.402;37.922;2022-10-16T01:36:26;10.10;59.83
75164;HTU21D;63746;45.402;37.922;2022-10-16T01:38:54;10.09;59.80
75164;HTU21D;63746;45.402;37.922;2022-10-16T01:41:26;10.08;59.80
75164;HTU21D;63746;45.402;37.922;2022-10-16T01:44:07;10.07;59.72
75164;HTU21D;63746;45.402;37.922;2022-10-16T01:46:36;10.04;59.73
75164;HTU21D;63746;45.402;37.922;2022-10-16T01:49:03;10.00;59.77
75164;HTU21D;63746;45.402;37.922;2022-10-16T01:51:32;9.97;59.78
75164;HTU21D;63746;45.402;37.922;2022-10-16T01:54:00;9.94;59.83
75164;HTU21D;63746;45.402;37.922;2022-10-16T01:56:27;9.95;59.87
75164;HTU21D;63746;45.402;37.922;2022-10-16T01:59:05;9.93;59.83
75164;HTU21D;63746;45.402;37.922;2022-10-16T02:01:34;9.90;59.86
75164;HTU21D;63746;45.402;37.922;2022-10-16T02:04:08;9.88;59.88
75164;HTU21D;63746;45.402;37.922;2022-10-16T02:06:34;9.86;59.91
75164;HTU21D;63746;45.402;37.922;2022-10-16T02:09:01;9.84;59.93
75164;HTU21D;63746;45.402;37.922;2022-10-16T02:11:27;9.83;59.96
75164;HTU21D;63746;45.402;37.922;2022-10-16T02:13:58;9.82;59.96
75164;HTU21D;63746;45.402;37.922;2022-10-16T02:16:37;9.79;59.96
75164;HTU21D;63746;45.402;37.922;2022-10-16T02:19:04;9.79;60.00
75164;HTU21D;63746;45.402;37.922;2022-10-16T02:29:41;9.70;60.10
75164;HTU21D;63746;45.402;37.922;2022-10-16T02:32:12;9.68;60.14
75164;HTU21D;63746;45.402;37.922;2022-10-16T02:34:39;9.67;60.15
75164;HTU21D;63746;45.402;37.922;2022-10-16T02:37:06;9.66;60.18
75164;HTU21D;63746;45.402;37.922;2022-10-16T02:39:33;9.64;60.19
75164;HTU21D;63746;45.402;37.922;2022-10-16T02:42:00;9.65;60.20
75164;HTU21D;63746;45.402;37.922;2022-10-16T02:44:26;9.67;60.27
75164;HTU21D;63746;45.402;37.922;2022-10-16T02:46:51;9.65;60.24
75164;HTU21D;63746;45.402;37.922;2022-10-16T02:49:17;9.67;60.26
75164;HTU21D;63746;45.402;37.922;2022-10-16T02:51:44;9.66;60.22
75164;HTU21D;63746;45.402;37.922;2022-10-16T02:54:10;9.67;60.25
75164;HTU21D;63746;45.402;37.922;2022-10-16T02:56:36;9.67;60.22
75164;HTU21D;63746;45.402;37.922;2022-10-16T02:59:02;9.68;60.22
75164;HTU21D;63746;45.402;37.922;2022-10-16T03:01:28;9.69;60.26
75164;HTU21D;63746;45.402;37.922;2022-10-16T03:03:53;9.69;60.28
75164;HTU21D;63746;45.402;37.922;2022-10-16T03:06:19;9.69;60.22
75164;HTU21D;63746;45.402;37.922;2022-10-16T03:08:45;9.70;60.25
75164;HTU21D;63746;45.402;37.922;2022-10-16T03:11:11;9.69;60.26
75164;HTU21D;63746;45.402;37.922;2022-10-16T03:13:37;9.69;60.24
75164;HTU21D;63746;45.402;37.922;2022-10-16T03:16:03;9.68;60.29
75164;HTU21D;63746;45.402;37.922;2022-10-16T03:18:29;9.67;60.29
75164;HTU21D;63746;45.402;37.922;2022-10-16T03:20:55;9.67;60.34
75164;HTU21D;63746;45.402;37.922;2022-10-16T03:23:21;9.66;60.34
75164;HTU21D;63746;45.402;37.922;2022-10-16T03:25:47;9.65;60.31
75164;HTU21D;63746;45.402;37.922;2022-10-16T03:28:13;9.64;60.35
75164;HTU21D;63746;45.402;37.922;2022-10-16T03:30:39;9.65;60.38
75164;HTU21D;63746;45.402;37.922;2022-10-16T03:33:05;9.63;60.39
75164;HTU21D;63746;45.402;37.922;2022-10-16T03:35:32;9.64;60.39
75164;HTU21D;63746;45.402;37.922;2022-10-16T03:37:58;9.65;60.44
75164;HTU21D;63746;45.402;37.922;2022-10-16T03:40:24;9.64;60.50
75164;HTU21D;63746;45.402;37.922;2022-10-16T03:42:50;9.63;60.46
75164;HTU21D;63746;45.402;37.922;2022-10-16T03:45:16;9.64;60.51
75164;HTU21D;63746;45.402;37.922;2022-10-16T03:47:42;9.64;60.50
75164;HTU21D;63746;45.402;37.922;2022-10-16T03:50:08;9.65;60.50
75164;HTU21D;63746;45.402;37.922;2022-10-16T03:52:34;9.65;60.51
75164;HTU21D;63746;45.402;37.922;2022-10-16T03:55:00;9.66;60.51
75164;HTU21D;63746;45.402;37.922;2022-10-16T03:57:26;9.67;60.56
75164;HTU21D;63746;45.402;37.922;2022-10-16T03:59:52;9.68;60.54
75164;HTU21D;63746;45.402;37.922;2022-10-16T04:02:18;9.68;60.55
75164;HTU21D;63746;45.402;37.922;2022-10-16T04:04:44;9.69;60.58
75164;HTU21D;63746;45.402;37.922;2022-10-16T04:07:10;9.69;60.64
75164;HTU21D;63746;45.402;37.922;2022-10-16T04:09:36;9.70;60.68
75164;HTU21D;63746;45.402;37.922;2022-10-16T04:12:02;9.72;60.73
75164;HTU21D;63746;45.402;37.922;2022-10-16T04:14:28;9.75;60.72
75164;HTU21D;63746;45.402;37.922;2022-10-16T04:16:54;9.76;60.73
75164;HTU21D;63746;45.402;37.922;2022-10-16T04:19:20;9.79;60.67
75164;HTU21D;63746;45.402;37.922;2022-10-16T04:21:46;9.82;60.69
75164;HTU21D;63746;45.402;37.922;2022-10-16T04:24:11;9.83;60.70
75164;HTU21D;63746;45.402;37.922;2022-10-16T04:26:37;9.86;60.67
75164;HTU21D;63746;45.402;37.922;2022-10-16T04:29:03;9.89;60.76
75164;HTU21D;63746;45.402;37.922;2022-10-16T04:31:29;9.91;60.69
75164;HTU21D;63746;45.402;37.922;2022-10-16T04:33:55;9.93;60.71
75164;HTU21D;63746;45.402;37.922;2022-10-16T04:36:21;9.95;60.70
75164;HTU21D;63746;45.402;37.922;2022-10-16T04:38:47;9.97;60.74
75164;HTU21D;63746;45.402;37.922;2022-10-16T04:41:13;10.00;60.72
75164;HTU21D;63746;45.402;37.922;2022-10-16T04:43:39;10.04;60.76
75164;HTU21D;63746;45.402;37.922;2022-10-16T04:46:05;10.07;60.76
75164;HTU21D;63746;45.402;37.922;2022-10-16T04:48:31;10.10;60.82
75164;HTU21D;63746;45.402;37.922;2022-10-16T04:50:57;10.13;60.76
75164;HTU21D;63746;45.402;37.922;2022-10-16T04:53:23;10.14;60.69
75164;HTU21D;63746;45.402;37.922;2022-10-16T04:55:49;10.18;60.73
75164;HTU21D;63746;45.402;37.922;2022-10-16T04:58:16;10.22;60.78
75164;HTU21D;63746;45.402;37.922;2022-10-16T05:00:42;10.26;60.83
75164;HTU21D;63746;45.402;37.922;2022-10-16T05:03:09;10.29;60.78
75164;HTU21D;63746;45.402;37.922;2022-10-16T05:05:35;10.33;60.89
75164;HTU21D;63746;45.402;37.922;2022-10-16T05:08:02;10.38;60.76
75164;HTU21D;63746;45.402;37.922;2022-10-16T05:10:28;10.43;60.80
75164;HTU21D;63746;45.402;37.922;2022-10-16T05:12:54;10.50;60.82
75164;HTU21D;63746;45.402;37.922;2022-10-16T05:15:20;10.59;60.89
75164;HTU21D;63746;45.402;37.922;2022-10-16T05:17:46;10.67;60.93
75164;HTU21D;63746;45.402;37.922;2022-10-16T05:20:12;10.75;60.83
75164;HTU21D;63746;45.402;37.922;2022-10-16T05:22:38;10.85;60.82
75164;HTU21D;63746;45.402;37.922;2022-10-16T05:25:04;10.95;60.89
75164;HTU21D;63746;45.402;37.922;2022-10-16T05:27:30;11.03;60.80
75164;HTU21D;63746;45.402;37.922;2022-10-16T05:29:56;11.11;60.72
75164;HTU21D;63746;45.402;37.922;2022-10-16T05:32:22;11.19;60.69
75164;HTU21D;63746;45.402;37.922;2022-10-16T05:34:48;11.28;60.70
75164;HTU21D;63746;45.402;37.922;2022-10-16T05:37:13;11.37;60.67
75164;HTU21D;63746;45.402;37.922;2022-10-16T05:39:39;11.46;60.70
75164;HTU21D;63746;45.402;37.922;2022-10-16T05:42:06;11.56;60.61
75164;HTU21D;63746;45.402;37.922;2022-10-16T05:44:32;11.67;60.66
75164;HTU21D;63746;45.402;37.922;2022-10-16T05:46:59;11.77;60.68
75164;HTU21D;63746;45.402;37.922;2022-10-16T05:49:25;11.87;60.53
75164;HTU21D;63746;45.402;37.922;2022-10-16T05:51:51;11.98;60.63
75164;HTU21D;63746;45.402;37.922;2022-10-16T05:54:17;12.06;60.70
75164;HTU21D;63746;45.402;37.922;2022-10-16T05:56:43;12.16;60.47
75164;HTU21D;63746;45.402;37.922;2022-10-16T05:59:09;12.25;60.38
75164;HTU21D;63746;45.402;37.922;2022-10-16T06:01:34;12.32;60.36
75164;HTU21D;63746;45.402;37.922;2022-10-16T06:04:01;12.41;60.40
75164;HTU21D;63746;45.402;37.922;2022-10-16T06:06:28;12.50;60.33
75164;HTU21D;63746;45.402;37.922;2022-10-16T06:08:56;12.58;60.25
75164;HTU21D;63746;45.402;37.922;2022-10-16T06:11:25;12.67;60.31
75164;HTU21D;63746;45.402;37.922;2022-10-16T06:13:51;12.80;61.28
75164;HTU21D;63746;45.402;37.922;2022-10-16T06:16:17;12.88;60.25
75164;HTU21D;63746;45.402;37.922;2022-10-16T06:18:44;12.96;60.15
75164;HTU21D;63746;45.402;37.922;2022-10-16T06:21:12;13.05;60.08
75164;HTU21D;63746;45.402;37.922;2022-10-16T06:23:39;13.10;60.00
75164;HTU21D;63746;45.402;37.922;2022-10-16T06:26:10;13.17;59.87
75164;HTU21D;63746;45.402;37.922;2022-10-16T06:28:36;13.19;59.88
75164;HTU21D;63746;45.402;37.922;2022-10-16T06:31:04;13.22;59.83
75164;HTU21D;63746;45.402;37.922;2022-10-16T06:33:31;13.26;59.86
75164;HTU21D;63746;45.402;37.922;2022-10-16T06:36:14;13.34;60.14
75164;HTU21D;63746;45.402;37.922;2022-10-16T06:38:41;13.41;59.99
75164;HTU21D;63746;45.402;37.922;2022-10-16T06:41:09;13.50;59.94
75164;HTU21D;63746;45.402;37.922;2022-10-16T06:43:35;13.60;59.99
75164;HTU21D;63746;45.402;37.922;2022-10-16T06:46:02;13.66;59.87
75164;HTU21D;63746;45.402;37.922;2022-10-16T06:48:29;13.73;59.86
75164;HTU21D;63746;45.402;37.922;2022-10-16T06:51:03;13.82;59.93
75164;HTU21D;63746;45.402;37.922;2022-10-16T06:53:32;13.85;59.79
75164;HTU21D;63746;45.402;37.922;2022-10-16T06:56:10;13.89;59.83
75164;HTU21D;63746;45.402;37.922;2022-10-16T06:58:36;13.91;59.59
75164;HTU21D;63746;45.402;37.922;2022-10-16T07:01:04;13.94;59.58
75164;HTU21D;63746;45.402;37.922;2022-10-16T07:03:30;13.98;59.59
75164;HTU21D;63746;45.402;37.922;2022-10-16T07:05:56;14.03;59.67
75164;HTU21D;63746;45.402;37.922;2022-10-16T07:08:22;14.07;59.63
75164;HTU21D;63746;45.402;37.922;2022-10-16T07:10:48;14.12;59.64
75164;HTU21D;63746;45.402;37.922;2022-10-16T07:13:14;14.20;59.60
75164;HTU21D;63746;45.402;37.922;2022-10-16T07:15:40;14.25;59.61
75164;HTU21D;63746;45.402;37.922;2022-10-16T07:18:07;14.29;59.60
75164;HTU21D;63746;45.402;37.922;2022-10-16T07:20:33;14.33;59.54
75164;HTU21D;63746;45.402;37.922;2022-10-16T07:23:00;14.36;59.48
75164;HTU21D;63746;45.402;37.922;2022-10-16T07:25:26;14.38;59.45
75164;HTU21D;63746;45.402;37.922;2022-10-16T07:27:52;14.42;59.46
75164;HTU21D;63746;45.402;37.922;2022-10-16T07:30:19;14.44;59.46
75164;HTU21D;63746;45.402;37.922;2022-10-16T07:32:45;14.47;59.48
75164;HTU21D;63746;45.402;37.922;2022-10-16T07:35:11;14.51;59.47
75164;HTU21D;63746;45.402;37.922;2022-10-16T07:37:37;14.55;59.46
75164;HTU21D;63746;45.402;37.922;2022-10-16T07:40:03;14.58;59.44
75164;HTU21D;63746;45.402;37.922;2022-10-16T07:42:29;14.63;59.52
75164;HTU21D;63746;45.402;37.922;2022-10-16T07:44:56;14.66;59.45
75164;HTU21D;63746;45.402;37.922;2022-10-16T07:47:22;14.71;59.51
75164;HTU21D;63746;45.402;37.922;2022-10-16T07:49:47;14.75;59.50
75164;HTU21D;63746;45.402;37.922;2022-10-16T07:52:14;14.79;59.44
75164;HTU21D;63746;45.402;37.922;2022-10-16T07:54:39;14.85;59.43
75164;HTU21D;63746;45.402;37.922;2022-10-16T07:57:05;14.92;59.38
75164;HTU21D;63746;45.402;37.922;2022-10-16T07:59:31;14.96;59.40
75164;HTU21D;63746;45.402;37.922;2022-10-16T08:01:57;15.02;59.38
75164;HTU21D;63746;45.402;37.922;2022-10-16T08:04:23;15.07;59.35
75164;HTU21D;63746;45.402;37.922;2022-10-16T08:06:49;15.12;59.35
75164;HTU21D;63746;45.402;37.922;2022-10-16T08:09:15;15.17;59.35
75164;HTU21D;63746;45.402;37.922;2022-10-16T08:11:41;15.23;59.29
75164;HTU21D;63746;45.402;37.922;2022-10-16T08:14:07;15.27;59.32
75164;HTU21D;63746;45.402;37.922;2022-10-16T08:16:33;15.36;59.32
75164;HTU21D;63746;45.402;37.922;2022-10-16T08:19:00;15.43;59.36
75164;HTU21D;63746;45.402;37.922;2022-10-16T08:21:26;15.52;59.29
75164;HTU21D;63746;45.402;37.922;2022-10-16T08:23:53;15.60;59.28
75164;HTU21D;63746;45.402;37.922;2022-10-16T08:26:19;15.69;59.21
75164;HTU21D;63746;45.402;37.922;2022-10-16T08:28:45;15.78;59.18
75164;HTU21D;63746;45.402;37.922;2022-10-16T08:31:12;15.87;59.17
75164;HTU21D;63746;45.402;37.922;2022-10-16T08:33:41;15.98;59.21
75164;HTU21D;63746;45.402;37.922;2022-10-16T08:36:09;16.12;59.24
75164;HTU21D;63746;45.402;37.922;2022-10-16T08:38:35;16.19;59.06
75164;HTU21D;63746;45.402;37.922;2022-10-16T08:46:41;16.50;59.06
75164;HTU21D;63746;45.402;37.922;2022-10-16T08:49:11;16.63;58.96
75164;HTU21D;63746;45.402;37.922;2022-10-16T08:51:39;16.75;58.85
75164;HTU21D;63746;45.402;37.922;2022-10-16T08:56:49;17.05;58.74
75164;HTU21D;63746;45.402;37.922;2022-10-16T08:59:16;17.18;58.70
75164;HTU21D;63746;45.402;37.922;2022-10-16T09:01:47;17.28;58.53
75164;HTU21D;63746;45.402;37.922;2022-10-16T09:06:57;17.48;58.58
75164;HTU21D;63746;45.402;37.922;2022-10-16T09:17:51;17.65;58.17
75164;HTU21D;63746;45.402;37.922;2022-10-16T09:25:31;17.74;58.29
75164;HTU21D;63746;45.402;37.922;2022-10-16T09:27:58;17.78;58.24
75164;HTU21D;63746;45.402;37.922;2022-10-16T09:30:27;17.80;58.14
75164;HTU21D;63746;45.402;37.922;2022-10-16T09:32:57;17.78;58.12
75164;HTU21D;63746;45.402;37.922;2022-10-16T09:35:46;17.78;58.14
75164;HTU21D;63746;45.402;37.922;2022-10-16T09:38:25;17.76;58.20
75164;HTU21D;63746;45.402;37.922;2022-10-16T09:40:52;17.76;58.22
75164;HTU21D;63746;45.402;37.922;2022-10-16T09:43:24;17.76;58.25
75164;HTU21D;63746;45.402;37.922;2022-10-16T09:46:04;17.76;58.31
75164;HTU21D;63746;45.402;37.922;2022-10-16T09:48:47;17.79;58.37
75164;HTU21D;63746;45.402;37.922;2022-10-16T09:51:23;17.84;58.42
75164;HTU21D;63746;45.402;37.922;2022-10-16T09:53:53;17.91;58.54
75164;HTU21D;63746;45.402;37.922;2022-10-16T09:56:33;17.91;58.33
75164;HTU21D;63746;45.402;37.922;2022-10-16T09:59:10;17.88;58.28
75164;HTU21D;63746;45.402;37.922;2022-10-16T10:01:39;17.88;58.24
75164;HTU21D;63746;45.402;37.922;2022-10-16T10:04:06;17.84;58.29
75164;HTU21D;63746;45.402;37.922;2022-10-16T10:06:52;17.84;58.29
75164;HTU21D;63746;45.402;37.922;2022-10-16T10:09:37;17.84;58.36
75164;HTU21D;63746;45.402;37.922;2022-10-16T10:12:05;17.88;58.43
75164;HTU21D;63746;45.402;37.922;2022-10-16T10:14:41;17.89;58.43
75164;HTU21D;63746;45.402;37.922;2022-10-16T10:17:15;17.91;58.41
75164;HTU21D;63746;45.402;37.922;2022-10-16T10:22:48;17.93;58.36
75164;HTU21D;63746;45.402;37.922;2022-10-16T10:25:37;17.91;58.39
75164;HTU21D;63746;45.402;37.922;2022-10-16T10:28:21;17.91;58.39
75164;HTU21D;63746;45.402;37.922;2022-10-16T10:33:42;17.94;58.45
75164;HTU21D;63746;45.402;37.922;2022-10-16T10:36:39;17.97;58.48
75164;HTU21D;63746;45.402;37.922;2022-10-16T10:45:07;18.09;58.50
75164;HTU21D;63746;45.402;37.922;2022-10-16T10:51:00;18.26;58.27
75164;HTU21D;63746;45.402;37.922;2022-10-16T10:59:24;18.33;58.26
75164;HTU21D;63746;45.402;37.922;2022-10-16T11:02:10;18.34;58.20
75164;HTU21D;63746;45.402;37.922;2022-10-16T11:07:38;18.28;58.03
75164;HTU21D;63746;45.402;37.922;2022-10-16T11:10:14;18.26;58.07
75164;HTU21D;63746;45.402;37.922;2022-10-16T11:12:44;18.26;58.30
75164;HTU21D;63746;45.402;37.922;2022-10-16T11:15:32;18.32;58.23
75164;HTU21D;63746;45.402;37.922;2022-10-16T11:18:20;18.37;58.19
75164;HTU21D;63746;45.402;37.922;2022-10-16T11:21:07;18.37;57.98
75164;HTU21D;63746;45.402;37.922;2022-10-16T11:24:04;18.37;57.96
75164;HTU21D;63746;45.402;37.922;2022-10-16T11:26:35;18.37;58.22
75164;HTU21D;63746;45.402;37.922;2022-10-16T11:29:13;18.37;58.16
75164;HTU21D;63746;45.402;37.922;2022-10-16T11:31:50;18.38;58.12
75164;HTU21D;63746;45.402;37.922;2022-10-16T11:34:22;18.40;58.22
75164;HTU21D;63746;45.402;37.922;2022-10-16T11:36:56;18.39;58.19
75164;HTU21D;63746;45.402;37.922;2022-10-16T11:39:28;18.40;58.15
75164;HTU21D;63746;45.402;37.922;2022-10-16T11:47:40;18.47;58.15
75164;HTU21D;63746;45.402;37.922;2022-10-16T11:53:13;18.49;58.12
75164;HTU21D;63746;45.402;37.922;2022-10-16T11:55:43;18.49;58.20
75164;HTU21D;63746;45.402;37.922;2022-10-16T11:58:29;18.50;58.11
75164;HTU21D;63746;45.402;37.922;2022-10-16T12:06:25;18.50;58.17
75164;HTU21D;63746;45.402;37.922;2022-10-16T12:08:54;18.49;58.17
75164;HTU21D;63746;45.402;37.922;2022-10-16T12:19:20;18.42;58.13
75164;HTU21D;63746;45.402;37.922;2022-10-16T12:21:46;18.42;58.18
75164;HTU21D;63746;45.402;37.922;2022-10-16T12:24:31;18.40;58.01
75164;HTU21D;63746;45.402;37.922;2022-10-16T12:26:57;18.37;58.21
75164;HTU21D;63746;45.402;37.922;2022-10-16T12:29:32;18.37;58.23
75164;HTU21D;63746;45.402;37.922;2022-10-16T12:31:59;18.35;58.25
75164;HTU21D;63746;45.402;37.922;2022-10-16T12:34:32;18.35;58.19
75164;HTU21D;63746;45.402;37.922;2022-10-16T12:37:21;18.34;58.02
75164;HTU21D;63746;45.402;37.922;2022-10-16T12:39:52;18.33;58.26
75164;HTU21D;63746;45.402;37.922;2022-10-16T12:44:54;18.32;58.29
75164;HTU21D;63746;45.402;37.922;2022-10-16T12:47:36;18.30;58.13
75164;HTU21D;63746;45.402;37.922;2022-10-16T12:50:03;18.29;58.25
75164;HTU21D;63746;45.402;37.922;2022-10-16T12:52:39;18.27;58.17
75164;HTU21D;63746;45.402;37.922;2022-10-16T12:55:12;18.24;58.25
75164;HTU21D;63746;45.402;37.922;2022-10-16T13:01:35;18.22;58.09
75164;HTU21D;63746;45.402;37.922;2022-10-16T13:06:33;18.15;58.16
75164;HTU21D;63746;45.402;37.922;2022-10-16T13:28:30;18.02;58.45
75164;HTU21D;63746;45.402;37.922;2022-10-16T13:30:59;18.02;58.47
75164;HTU21D;63746;45.402;37.922;2022-10-16T13:33:36;18.00;58.37
75164;HTU21D;63746;45.402;37.922;2022-10-16T13:36:04;17.99;58.46
75164;HTU21D;63746;45.402;37.922;2022-10-16T13:38:35;17.99;58.41
75164;HTU21D;63746;45.402;37.922;2022-10-16T13:41:12;17.98;58.41
75164;HTU21D;63746;45.402;37.922;2022-10-16T13:43:49;17.97;58.35
75164;HTU21D;63746;45.402;37.922;2022-10-16T13:46:21;17.96;58.45
75164;HTU21D;63746;45.402;37.922;2022-10-16T13:51:25;17.96;58.46
75164;HTU21D;63746;45.402;37.922;2022-10-16T13:53:51;17.94;58.46
75164;HTU21D;63746;45.402;37.922;2022-10-16T13:56:20;17.93;58.45
75164;HTU21D;63746;45.402;37.922;2022-10-16T13:58:58;17.91;58.34
75164;HTU21D;63746;45.402;37.922;2022-10-16T14:01:28;17.90;58.42
75164;HTU21D;63746;45.402;37.922;2022-10-16T14:04:07;17.88;58.42
75164;HTU21D;63746;45.402;37.922;2022-10-16T14:06:35;17.87;58.45
75164;HTU21D;63746;45.402;37.922;2022-10-16T14:09:06;17.84;58.45
75164;HTU21D;63746;45.402;37.922;2022-10-16T14:11:34;17.82;58.48
75164;HTU21D;63746;45.402;37.922;2022-10-16T14:14:04;17.80;58.48
75164;HTU21D;63746;45.402;37.922;2022-10-16T14:16:31;17.79;58.47
75164;HTU21D;63746;45.402;37.922;2022-10-16T14:19:03;17.75;58.44
75164;HTU21D;63746;45.402;37.922;2022-10-16T14:21:32;17.72;58.48
75164;HTU21D;63746;45.402;37.922;2022-10-16T14:23:59;17.68;58.52
75164;HTU21D;63746;45.402;37.922;2022-10-16T14:26:42;17.64;58.48
75164;HTU21D;63746;45.402;37.922;2022-10-16T14:29:14;17.61;58.48
75164;HTU21D;63746;45.402;37.922;2022-10-16T14:31:41;17.56;58.57
75164;HTU21D;63746;45.402;37.922;2022-10-16T14:34:25;17.53;58.43
75164;HTU21D;63746;45.402;37.922;2022-10-16T14:36:56;17.48;58.62
75164;HTU21D;63746;45.402;37.922;2022-10-16T14:39:25;17.44;58.63
75164;HTU21D;63746;45.402;37.922;2022-10-16T14:41:52;17.39;58.65
75164;HTU21D;63746;45.402;37.922;2022-10-16T14:44:20;17.34;58.20
75164;HTU21D;63746;45.402;37.922;2022-10-16T14:46:49;17.28;58.70
75164;HTU21D;63746;45.402;37.922;2022-10-16T14:49:18;17.21;58.74
75164;HTU21D;63746;45.402;37.922;2022-10-16T14:51:46;17.17;58.81
75164;HTU21D;63746;45.402;37.922;2022-10-16T14:54:17;17.11;58.82
75164;HTU21D;63746;45.402;37.922;2022-10-16T14:56:50;17.07;58.75
75164;HTU21D;63746;45.402;37.922;2022-10-16T14:59:23;17.01;58.85
75164;HTU21D;63746;45.402;37.922;2022-10-16T15:01:50;16.96;58.83
75164;HTU21D;63746;45.402;37.922;2022-10-16T15:04:16;16.92;58.87
75164;HTU21D;63746;45.402;37.922;2022-10-16T15:06:43;16.90;58.92
75164;HTU21D;63746;45.402;37.922;2022-10-16T15:09:10;16.87;58.93
75164;HTU21D;63746;45.402;37.922;2022-10-16T15:11:37;16.84;58.94
75164;HTU21D;63746;45.402;37.922;2022-10-16T15:14:03;16.81;58.94
75164;HTU21D;63746;45.402;37.922;2022-10-16T15:16:29;16.78;58.96
75164;HTU21D;63746;45.402;37.922;2022-10-16T15:18:56;16.76;58.95
75164;HTU21D;63746;45.402;37.922;2022-10-16T15:21:27;16.74;58.93
75164;HTU21D;63746;45.402;37.922;2022-10-16T15:23:54;16.71;58.99
75164;HTU21D;63746;45.402;37.922;2022-10-16T15:26:23;16.69;58.99
75164;HTU21D;63746;45.402;37.922;2022-10-16T15:28:49;16.65;58.99
75164;HTU21D;63746;45.402;37.922;2022-10-16T15:31:15;16.63;59.02
75164;HTU21D;63746;45.402;37.922;2022-10-16T15:33:41;16.61;59.02
75164;HTU21D;63746;45.402;37.922;2022-10-16T15:36:07;16.58;59.02
75164;HTU21D;63746;45.402;37.922;2022-10-16T15:38:34;16.56;59.03
75164;HTU21D;63746;45.402;37.922;2022-10-16T15:41:00;16.55;59.03
75164;HTU21D;63746;45.402;37.922;2022-10-16T15:43:26;16.51;59.03
75164;HTU21D;63746;45.402;37.922;2022-10-16T15:46:00;16.49;59.01
75164;HTU21D;63746;45.402;37.922;2022-10-16T15:48:27;16.47;59.06
75164;HTU21D;63746;45.402;37.922;2022-10-16T15:50:53;16.44;59.07
75164;HTU21D;63746;45.402;37.922;2022-10-16T15:53:19;16.42;59.09
75164;HTU21D;63746;45.402;37.922;2022-10-16T15:55:45;16.41;59.08
75164;HTU21D;63746;45.402;37.922;2022-10-16T15:58:11;16.39;59.09
75164;HTU21D;63746;45.402;37.922;2022-10-16T16:00:36;16.35;59.09
75164;HTU21D;63746;45.402;37.922;2022-10-16T16:03:03;16.32;59.09
75164;HTU21D;63746;45.402;37.922;2022-10-16T16:05:29;16.31;59.10
75164;HTU21D;63746;45.402;37.922;2022-10-16T16:07:56;16.30;59.10
75164;HTU21D;63746;45.402;37.922;2022-10-16T16:10:22;16.26;59.10
75164;HTU21D;63746;45.402;37.922;2022-10-16T16:12:49;16.25;59.09
75164;HTU21D;63746;45.402;37.922;2022-10-16T16:15:19;16.21;59.12
75164;HTU21D;63746;45.402;37.922;2022-10-16T16:17:45;16.18;59.12
75164;HTU21D;63746;45.402;37.922;2022-10-16T16:20:13;16.16;59.13
75164;HTU21D;63746;45.402;37.922;2022-10-16T16:22:39;16.16;59.16
75164;HTU21D;63746;45.402;37.922;2022-10-16T16:25:06;16.13;59.17
75164;HTU21D;63746;45.402;37.922;2022-10-16T16:27:32;16.12;59.19
75164;HTU21D;63746;45.402;37.922;2022-10-16T16:30:08;16.10;59.19
75164;HTU21D;63746;45.402;37.922;2022-10-16T16:32:35;16.08;59.19
75164;HTU21D;63746;45.402;37.922;2022-10-16T16:35:03;16.10;59.18
75164;HTU21D;63746;45.402;37.922;2022-10-16T16:37:31;16.05;59.15
75164;HTU21D;63746;45.402;37.922;2022-10-16T16:39:57;16.04;59.16
75164;HTU21D;63746;45.402;37.922;2022-10-16T16:42:27;16.03;59.18
75164;HTU21D;63746;45.402;37.922;2022-10-16T16:44:54;15.99;59.19
75164;HTU21D;63746;45.402;37.922;2022-10-16T16:47:20;15.97;59.21
75164;HTU21D;63746;45.402;37.922;2022-10-16T16:49:48;15.95;59.19
75164;HTU21D;63746;45.402;37.922;2022-10-16T16:52:14;15.92;59.21
75164;HTU21D;63746;45.402;37.922;2022-10-16T16:54:40;15.90;59.21
75164;HTU21D;63746;45.402;37.922;2022-10-16T16:57:06;15.88;59.22
75164;HTU21D;63746;45.402;37.922;2022-10-16T16:59:32;15.84;59.22
75164;HTU21D;63746;45.402;37.922;2022-10-16T17:01:59;15.82;59.25
75164;HTU21D;63746;45.402;37.922;2022-10-16T17:04:25;15.77;59.26
75164;HTU21D;63746;45.402;37.922;2022-10-16T17:06:55;15.75;59.31
75164;HTU21D;63746;45.402;37.922;2022-10-16T17:09:21;15.73;59.32
75164;HTU21D;63746;45.402;37.922;2022-10-16T17:11:47;15.71;59.34
75164;HTU21D;63746;45.402;37.922;2022-10-16T17:14:15;15.68;59.34
75164;HTU21D;63746;45.402;37.922;2022-10-16T17:16:42;15.65;59.36
75164;HTU21D;63746;45.402;37.922;2022-10-16T17:19:15;15.63;59.38